sensor_id;sensor_type;location;lat;lon;timestamp;P1;durP1;ratioP1;P2;durP2;ratioP2
38264;SDS011;24062;47.480;8.768;2023-06-26T00:00:10;4.70;;;4.30;;
38264;SDS011;24062;47.480;8.768;2023-06-26T00:02:38;4.80;;;4.40;;
38264;SDS011;24062;47.480;8.768;2023-06-26T00:05:06;4.70;;;4.30;;
38264;SDS011;24062;47.480;8.768;2023-06-26T00:07:33;4.90;;;4.50;;
38264;SDS011;24062;47.480;8.768;2023-06-26T00:10:00;4.33;;;4.03;;
38264;SDS011;24062;47.480;8.768;2023-06-26T00:12:29;4.57;;;4.17;;
38264;SDS011;24062;47.480;8.768;2023-06-26T00:14:56;5.03;;;4.40;;
38264;SDS011;24062;47.480;8.768;2023-06-26T00:17:23;4.77;;;4.27;;
38264;SDS011;24062;47.480;8.768;2023-06-26T00:19:51;4.13;;;3.83;;
38264;SDS011;24062;47.480;8.768;2023-06-26T00:22:18;4.33;;;4.03;;
38264;SDS011;24062;47.480;8.768;2023-06-26T00:24:45;4.30;;;4.00;;
38264;SDS011;24062;47.480;8.768;2023-06-26T00:27:12;4.70;;;4.03;;
38264;SDS011;24062;47.480;8.768;2023-06-26T00:29:40;5.10;;;4.70;;
38264;SDS011;24062;47.480;8.768;2023-06-26T00:32:07;4.80;;;4.40;;
38264;SDS011;24062;47.480;8.768;2023-06-26T00:34:34;4.73;;;4.33;;
38264;SDS011;24062;47.480;8.768;2023-06-26T00:37:01;4.47;;;4.10;;
38264;SDS011;24062;47.480;8.768;2023-06-26T00:39:29;4.53;;;4.13;;
38264;SDS011;24062;47.480;8.768;2023-06-26T00:41:56;5.03;;;4.63;;
38264;SDS011;24062;47.480;8.768;2023-06-26T00:44:23;6.80;;;4.37;;
38264;SDS011;24062;47.480;8.768;2023-06-26T00:46:51;4.90;;;4.50;;
38264;SDS011;24062;47.480;8.768;2023-06-26T00:49:18;5.00;;;3.80;;
38264;SDS011;24062;47.480;8.768;2023-06-26T00:51:45;4.60;;;4.30;;
38264;SDS011;24062;47.480;8.768;2023-06-26T00:54:12;3.90;;;3.60;;
38264;SDS011;24062;47.480;8.768;2023-06-26T00:56:45;4.50;;;4.10;;
38264;SDS011;24062;47.480;8.768;2023-06-26T00:59:12;4.67;;;4.27;;
38264;SDS011;24062;47.480;8.768;2023-06-26T01:01:39;4.43;;;4.00;;
38264;SDS011;24062;47.480;8.768;2023-06-26T01:04:07;4.23;;;3.93;;
38264;SDS011;24062;47.480;8.768;2023-06-26T01:06:43;4.70;;;4.30;;
38264;SDS011;24062;47.480;8.768;2023-06-26T01:09:14;4.40;;;4.00;;
38264;SDS011;24062;47.480;8.768;2023-06-26T01:11:43;4.80;;;4.40;;
38264;SDS011;24062;47.480;8.768;2023-06-26T01:14:10;4.17;;;3.87;;
38264;SDS011;24062;47.480;8.768;2023-06-26T01:16:37;4.00;;;3.70;;
38264;SDS011;24062;47.480;8.768;2023-06-26T01:19:05;6.03;;;3.60;;
38264;SDS011;24062;47.480;8.768;2023-06-26T01:21:40;4.00;;;3.60;;
38264;SDS011;24062;47.480;8.768;2023-06-26T01:24:12;4.23;;;3.93;;
38264;SDS011;24062;47.480;8.768;2023-06-26T01:26:46;3.80;;;3.50;;
38264;SDS011;24062;47.480;8.768;2023-06-26T01:29:17;4.47;;;4.10;;
38264;SDS011;24062;47.480;8.768;2023-06-26T01:31:46;3.90;;;3.50;;
38264;SDS011;24062;47.480;8.768;2023-06-26T01:34:14;4.57;;;4.17;;
38264;SDS011;24062;47.480;8.768;2023-06-26T01:36:43;4.23;;;3.83;;
38264;SDS011;24062;47.480;8.768;2023-06-26T01:39:12;4.77;;;4.17;;
38264;SDS011;24062;47.480;8.768;2023-06-26T01:41:41;5.17;;;4.77;;
38264;SDS011;24062;47.480;8.768;2023-06-26T01:44:14;6.40;;;4.00;;
38264;SDS011;24062;47.480;8.768;2023-06-26T01:46:49;4.30;;;4.00;;
38264;SDS011;24062;47.480;8.768;2023-06-26T01:49:26;4.50;;;3.63;;
38264;SDS011;24062;47.480;8.768;2023-06-26T01:52:01;4.57;;;4.23;;
38264;SDS011;24062;47.480;8.768;2023-06-26T01:54:35;4.20;;;3.90;;
38264;SDS011;24062;47.480;8.768;2023-06-26T01:57:08;5.00;;;4.60;;
38264;SDS011;24062;47.480;8.768;2023-06-26T01:59:37;3.93;;;3.63;;
38264;SDS011;24062;47.480;8.768;2023-06-26T02:02:06;4.70;;;4.30;;
38264;SDS011;24062;47.480;8.768;2023-06-26T02:04:34;4.70;;;4.30;;
38264;SDS011;24062;47.480;8.768;2023-06-26T02:07:02;4.57;;;4.17;;
38264;SDS011;24062;47.480;8.768;2023-06-26T02:09:29;4.77;;;4.37;;
38264;SDS011;24062;47.480;8.768;2023-06-26T02:11:56;4.00;;;3.67;;
38264;SDS011;24062;47.480;8.768;2023-06-26T02:14:23;4.90;;;4.50;;
38264;SDS011;24062;47.480;8.768;2023-06-26T02:16:51;4.40;;;4.10;;
38264;SDS011;24062;47.480;8.768;2023-06-26T02:19:18;4.57;;;4.17;;
38264;SDS011;24062;47.480;8.768;2023-06-26T02:21:46;5.07;;;4.60;;
38264;SDS011;24062;47.480;8.768;2023-06-26T02:24:14;4.50;;;4.20;;
38264;SDS011;24062;47.480;8.768;2023-06-26T02:26:41;5.10;;;4.70;;
38264;SDS011;24062;47.480;8.768;2023-06-26T02:29:08;4.90;;;4.50;;
38264;SDS011;24062;47.480;8.768;2023-06-26T02:31:35;5.07;;;4.67;;
38264;SDS011;24062;47.480;8.768;2023-06-26T02:34:03;4.70;;;4.30;;
38264;SDS011;24062;47.480;8.768;2023-06-26T02:36:30;4.90;;;4.50;;
38264;SDS011;24062;47.480;8.768;2023-06-26T02:38:57;4.67;;;4.27;;
38264;SDS011;24062;47.480;8.768;2023-06-26T02:41:24;4.90;;;4.50;;
38264;SDS011;24062;47.480;8.768;2023-06-26T02:43:51;4.67;;;4.27;;
38264;SDS011;24062;47.480;8.768;2023-06-26T02:46:18;4.70;;;4.30;;
38264;SDS011;24062;47.480;8.768;2023-06-26T02:48:45;4.53;;;4.13;;
38264;SDS011;24062;47.480;8.768;2023-06-26T02:51:13;4.53;;;4.17;;
38264;SDS011;24062;47.480;8.768;2023-06-26T02:53:40;4.63;;;4.23;;
38264;SDS011;24062;47.480;8.768;2023-06-26T02:56:07;4.17;;;3.83;;
38264;SDS011;24062;47.480;8.768;2023-06-26T02:58:34;4.27;;;3.87;;
38264;SDS011;24062;47.480;8.768;2023-06-26T03:01:01;4.93;;;4.53;;
38264;SDS011;24062;47.480;8.768;2023-06-26T03:03:28;4.40;;;4.07;;
38264;SDS011;24062;47.480;8.768;2023-06-26T03:05:55;4.83;;;4.43;;
38264;SDS011;24062;47.480;8.768;2023-06-26T03:08:23;3.93;;;3.63;;
38264;SDS011;24062;47.480;8.768;2023-06-26T03:10:50;5.30;;;4.80;;
38264;SDS011;24062;47.480;8.768;2023-06-26T03:13:17;5.60;;;4.40;;
38264;SDS011;24062;47.480;8.768;2023-06-26T03:15:44;5.53;;;4.40;;
38264;SDS011;24062;47.480;8.768;2023-06-26T03:18:11;4.80;;;4.30;;
38264;SDS011;24062;47.480;8.768;2023-06-26T03:20:38;4.80;;;4.40;;
38264;SDS011;24062;47.480;8.768;2023-06-26T03:23:05;4.53;;;4.23;;
38264;SDS011;24062;47.480;8.768;2023-06-26T03:25:33;4.47;;;4.07;;
38264;SDS011;24062;47.480;8.768;2023-06-26T03:28:00;4.07;;;3.77;;
38264;SDS011;24062;47.480;8.768;2023-06-26T03:30:27;4.50;;;4.10;;
38264;SDS011;24062;47.480;8.768;2023-06-26T03:32:54;4.47;;;4.17;;
38264;SDS011;24062;47.480;8.768;2023-06-26T03:35:21;4.40;;;4.00;;
38264;SDS011;24062;47.480;8.768;2023-06-26T03:37:48;4.00;;;3.70;;
38264;SDS011;24062;47.480;8.768;2023-06-26T03:40:15;4.10;;;3.80;;
38264;SDS011;24062;47.480;8.768;2023-06-26T03:42:44;4.40;;;4.10;;
38264;SDS011;24062;47.480;8.768;2023-06-26T03:45:11;5.47;;;4.10;;
38264;SDS011;24062;47.480;8.768;2023-06-26T03:47:38;4.10;;;3.80;;
38264;SDS011;24062;47.480;8.768;2023-06-26T03:50:05;4.67;;;4.37;;
38264;SDS011;24062;47.480;8.768;2023-06-26T03:52:32;4.47;;;4.03;;
38264;SDS011;24062;47.480;8.768;2023-06-26T03:54:59;4.90;;;4.50;;
38264;SDS011;24062;47.480;8.768;2023-06-26T03:57:26;4.47;;;4.07;;
38264;SDS011;24062;47.480;8.768;2023-06-26T03:59:55;4.60;;;4.20;;
38264;SDS011;24062;47.480;8.768;2023-06-26T04:02:22;5.10;;;4.60;;
38264;SDS011;24062;47.480;8.768;2023-06-26T04:04:49;4.70;;;3.70;;
38264;SDS011;24062;47.480;8.768;2023-06-26T04:07:17;4.90;;;4.33;;
38264;SDS011;24062;47.480;8.768;2023-06-26T04:09:44;4.67;;;4.27;;
38264;SDS011;24062;47.480;8.768;2023-06-26T04:12:11;4.63;;;4.23;;
38264;SDS011;24062;47.480;8.768;2023-06-26T04:14:38;4.07;;;3.77;;
38264;SDS011;24062;47.480;8.768;2023-06-26T04:17:06;4.50;;;4.10;;
38264;SDS011;24062;47.480;8.768;2023-06-26T04:19:33;4.37;;;3.97;;
38264;SDS011;24062;47.480;8.768;2023-06-26T04:22:01;4.20;;;3.90;;
38264;SDS011;24062;47.480;8.768;2023-06-26T04:24:28;4.17;;;3.87;;
38264;SDS011;24062;47.480;8.768;2023-06-26T04:26:55;4.40;;;4.10;;
38264;SDS011;24062;47.480;8.768;2023-06-26T04:29:22;4.60;;;4.20;;
38264;SDS011;24062;47.480;8.768;2023-06-26T04:31:50;4.57;;;4.07;;
38264;SDS011;24062;47.480;8.768;2023-06-26T04:34:19;5.60;;;4.47;;
38264;SDS011;24062;47.480;8.768;2023-06-26T04:36:45;4.10;;;3.80;;
38264;SDS011;24062;47.480;8.768;2023-06-26T04:39:13;5.33;;;4.10;;
38264;SDS011;24062;47.480;8.768;2023-06-26T04:41:40;4.33;;;4.03;;
38264;SDS011;24062;47.480;8.768;2023-06-26T04:44:07;4.03;;;3.70;;
38264;SDS011;24062;47.480;8.768;2023-06-26T04:46:34;4.40;;;4.00;;
38264;SDS011;24062;47.480;8.768;2023-06-26T04:49:06;4.10;;;3.80;;
38264;SDS011;24062;47.480;8.768;2023-06-26T04:51:34;4.27;;;3.97;;
38264;SDS011;24062;47.480;8.768;2023-06-26T04:54:05;3.80;;;3.50;;
38264;SDS011;24062;47.480;8.768;2023-06-26T04:56:32;5.07;;;4.67;;
38264;SDS011;24062;47.480;8.768;2023-06-26T04:58:59;4.43;;;4.03;;
38264;SDS011;24062;47.480;8.768;2023-06-26T05:01:26;4.50;;;4.20;;
38264;SDS011;24062;47.480;8.768;2023-06-26T05:03:54;4.03;;;3.73;;
38264;SDS011;24062;47.480;8.768;2023-06-26T05:06:21;4.27;;;3.87;;
38264;SDS011;24062;47.480;8.768;2023-06-26T05:08:49;4.53;;;4.17;;
38264;SDS011;24062;47.480;8.768;2023-06-26T05:11:17;5.60;;;3.97;;
38264;SDS011;24062;47.480;8.768;2023-06-26T05:13:44;4.33;;;3.93;;
38264;SDS011;24062;47.480;8.768;2023-06-26T05:16:11;5.60;;;4.10;;
38264;SDS011;24062;47.480;8.768;2023-06-26T05:18:37;4.93;;;4.23;;
38264;SDS011;24062;47.480;8.768;2023-06-26T05:21:05;4.27;;;3.87;;
38264;SDS011;24062;47.480;8.768;2023-06-26T05:23:33;4.07;;;3.77;;
38264;SDS011;24062;47.480;8.768;2023-06-26T05:26:02;5.13;;;4.20;;
38264;SDS011;24062;47.480;8.768;2023-06-26T05:28:30;5.67;;;5.13;;
38264;SDS011;24062;47.480;8.768;2023-06-26T05:30:57;4.97;;;4.57;;
38264;SDS011;24062;47.480;8.768;2023-06-26T05:33:25;4.63;;;4.30;;
38264;SDS011;24062;47.480;8.768;2023-06-26T05:35:53;5.03;;;4.63;;
38264;SDS011;24062;47.480;8.768;2023-06-26T05:38:21;4.40;;;4.03;;
38264;SDS011;24062;47.480;8.768;2023-06-26T05:40:48;4.83;;;4.43;;
38264;SDS011;24062;47.480;8.768;2023-06-26T05:43:17;5.40;;;4.90;;
38264;SDS011;24062;47.480;8.768;2023-06-26T05:45:46;6.10;;;4.90;;
38264;SDS011;24062;47.480;8.768;2023-06-26T05:48:14;4.90;;;4.50;;
38264;SDS011;24062;47.480;8.768;2023-06-26T05:50:42;5.20;;;4.80;;
38264;SDS011;24062;47.480;8.768;2023-06-26T05:53:10;4.83;;;4.43;;
38264;SDS011;24062;47.480;8.768;2023-06-26T05:55:40;4.80;;;4.37;;
38264;SDS011;24062;47.480;8.768;2023-06-26T05:58:07;5.53;;;5.03;;
38264;SDS011;24062;47.480;8.768;2023-06-26T06:00:38;5.07;;;4.57;;
38264;SDS011;24062;47.480;8.768;2023-06-26T06:03:06;5.20;;;4.80;;
38264;SDS011;24062;47.480;8.768;2023-06-26T06:05:35;5.07;;;4.67;;
38264;SDS011;24062;47.480;8.768;2023-06-26T06:08:01;5.30;;;4.50;;
38264;SDS011;24062;47.480;8.768;2023-06-26T06:10:29;5.10;;;4.70;;
38264;SDS011;24062;47.480;8.768;2023-06-26T06:12:56;6.10;;;5.20;;
38264;SDS011;24062;47.480;8.768;2023-06-26T06:15:23;7.00;;;4.57;;
38264;SDS011;24062;47.480;8.768;2023-06-26T06:17:51;5.50;;;5.10;;
38264;SDS011;24062;47.480;8.768;2023-06-26T06:20:18;5.40;;;5.00;;
38264;SDS011;24062;47.480;8.768;2023-06-26T06:22:46;5.33;;;4.83;;
38264;SDS011;24062;47.480;8.768;2023-06-26T06:25:14;6.20;;;5.60;;
38264;SDS011;24062;47.480;8.768;2023-06-26T06:27:41;5.67;;;5.27;;
38264;SDS011;24062;47.480;8.768;2023-06-26T06:30:09;5.63;;;5.23;;
38264;SDS011;24062;47.480;8.768;2023-06-26T06:32:36;6.90;;;6.20;;
38264;SDS011;24062;47.480;8.768;2023-06-26T06:35:05;6.23;;;5.73;;
38264;SDS011;24062;47.480;8.768;2023-06-26T06:37:34;6.43;;;5.83;;
38264;SDS011;24062;47.480;8.768;2023-06-26T06:40:02;6.43;;;5.93;;
38264;SDS011;24062;47.480;8.768;2023-06-26T06:42:31;5.70;;;5.13;;
38264;SDS011;24062;47.480;8.768;2023-06-26T06:44:58;5.30;;;4.90;;
38264;SDS011;24062;47.480;8.768;2023-06-26T06:47:25;6.10;;;5.50;;
38264;SDS011;24062;47.480;8.768;2023-06-26T06:49:52;5.90;;;5.30;;
38264;SDS011;24062;47.480;8.768;2023-06-26T06:52:20;7.00;;;5.53;;
38264;SDS011;24062;47.480;8.768;2023-06-26T06:54:51;5.20;;;4.80;;
38264;SDS011;24062;47.480;8.768;2023-06-26T06:57:18;6.53;;;5.37;;
38264;SDS011;24062;47.480;8.768;2023-06-26T06:59:46;5.93;;;5.50;;
38264;SDS011;24062;47.480;8.768;2023-06-26T07:02:13;7.73;;;5.60;;
38264;SDS011;24062;47.480;8.768;2023-06-26T07:04:40;5.47;;;4.97;;
38264;SDS011;24062;47.480;8.768;2023-06-26T07:07:07;5.30;;;4.90;;
38264;SDS011;24062;47.480;8.768;2023-06-26T07:09:36;7.80;;;5.80;;
38264;SDS011;24062;47.480;8.768;2023-06-26T07:12:03;5.50;;;5.00;;
38264;SDS011;24062;47.480;8.768;2023-06-26T07:14:31;6.20;;;5.70;;
38264;SDS011;24062;47.480;8.768;2023-06-26T07:16:58;5.90;;;5.50;;
38264;SDS011;24062;47.480;8.768;2023-06-26T07:19:25;5.73;;;5.23;;
38264;SDS011;24062;47.480;8.768;2023-06-26T07:21:52;5.60;;;5.03;;
38264;SDS011;24062;47.480;8.768;2023-06-26T07:24:18;5.57;;;5.03;;
38264;SDS011;24062;47.480;8.768;2023-06-26T07:26:47;5.80;;;5.30;;
38264;SDS011;24062;47.480;8.768;2023-06-26T07:29:14;6.80;;;4.93;;
38264;SDS011;24062;47.480;8.768;2023-06-26T07:31:41;9.30;;;5.80;;
38264;SDS011;24062;47.480;8.768;2023-06-26T07:34:09;5.83;;;5.33;;
38264;SDS011;24062;47.480;8.768;2023-06-26T07:36:36;6.10;;;5.60;;
38264;SDS011;24062;47.480;8.768;2023-06-26T07:39:03;5.27;;;4.87;;
38264;SDS011;24062;47.480;8.768;2023-06-26T07:41:30;6.50;;;5.67;;
38264;SDS011;24062;47.480;8.768;2023-06-26T07:43:59;5.20;;;4.80;;
38264;SDS011;24062;47.480;8.768;2023-06-26T07:46:26;5.97;;;5.37;;
38264;SDS011;24062;47.480;8.768;2023-06-26T07:48:53;5.80;;;5.17;;
38264;SDS011;24062;47.480;8.768;2023-06-26T07:51:20;6.93;;;5.60;;
38264;SDS011;24062;47.480;8.768;2023-06-26T07:53:47;6.33;;;5.80;;
38264;SDS011;24062;47.480;8.768;2023-06-26T07:56:14;6.20;;;5.70;;
38264;SDS011;24062;47.480;8.768;2023-06-26T07:58:41;6.23;;;5.73;;
38264;SDS011;24062;47.480;8.768;2023-06-26T08:01:09;6.70;;;5.97;;
38264;SDS011;24062;47.480;8.768;2023-06-26T08:03:36;7.10;;;5.72;;
38264;SDS011;24062;47.480;8.768;2023-06-26T08:06:03;7.35;;;5.63;;
38264;SDS011;24062;47.480;8.768;2023-06-26T08:08:30;6.03;;;5.53;;
38264;SDS011;24062;47.480;8.768;2023-06-26T08:10:57;7.10;;;5.53;;
38264;SDS011;24062;47.480;8.768;2023-06-26T08:13:24;6.60;;;6.00;;
38264;SDS011;24062;47.480;8.768;2023-06-26T08:15:51;6.25;;;5.68;;
38264;SDS011;24062;47.480;8.768;2023-06-26T08:18:20;6.22;;;5.43;;
38264;SDS011;24062;47.480;8.768;2023-06-26T08:20:47;8.05;;;5.80;;
38264;SDS011;24062;47.480;8.768;2023-06-26T08:23:14;5.65;;;5.25;;
38264;SDS011;24062;47.480;8.768;2023-06-26T08:25:41;5.90;;;5.40;;
38264;SDS011;24062;47.480;8.768;2023-06-26T08:28:08;5.85;;;5.38;;
38264;SDS011;24062;47.480;8.768;2023-06-26T08:30:35;5.95;;;5.35;;
38264;SDS011;24062;47.480;8.768;2023-06-26T08:33:02;6.28;;;5.78;;
38264;SDS011;24062;47.480;8.768;2023-06-26T08:35:30;5.68;;;4.88;;
38264;SDS011;24062;47.480;8.768;2023-06-26T08:37:57;6.85;;;5.75;;
38264;SDS011;24062;47.480;8.768;2023-06-26T08:40:24;6.78;;;6.03;;
38264;SDS011;24062;47.480;8.768;2023-06-26T08:42:52;5.90;;;5.18;;
38264;SDS011;24062;47.480;8.768;2023-06-26T08:45:19;4.95;;;4.43;;
38264;SDS011;24062;47.480;8.768;2023-06-26T08:47:47;5.85;;;5.35;;
38264;SDS011;24062;47.480;8.768;2023-06-26T08:50:17;5.35;;;4.68;;
38264;SDS011;24062;47.480;8.768;2023-06-26T08:52:51;4.82;;;4.43;;
38264;SDS011;24062;47.480;8.768;2023-06-26T08:55:23;5.40;;;4.90;;
38264;SDS011;24062;47.480;8.768;2023-06-26T08:57:52;5.13;;;4.72;;
38264;SDS011;24062;47.480;8.768;2023-06-26T09:00:19;5.00;;;4.60;;
38264;SDS011;24062;47.480;8.768;2023-06-26T09:02:46;8.00;;;5.35;;
38264;SDS011;24062;47.480;8.768;2023-06-26T09:05:13;5.10;;;4.60;;
38264;SDS011;24062;47.480;8.768;2023-06-26T09:07:41;5.80;;;5.40;;
38264;SDS011;24062;47.480;8.768;2023-06-26T09:10:09;5.30;;;4.90;;
38264;SDS011;24062;47.480;8.768;2023-06-26T09:12:36;6.40;;;5.30;;
38264;SDS011;24062;47.480;8.768;2023-06-26T09:15:04;7.38;;;4.97;;
38264;SDS011;24062;47.480;8.768;2023-06-26T09:17:33;6.05;;;5.00;;
38264;SDS011;24062;47.480;8.768;2023-06-26T09:20:05;7.40;;;5.38;;
38264;SDS011;24062;47.480;8.768;2023-06-26T09:22:36;5.40;;;4.72;;
38264;SDS011;24062;47.480;8.768;2023-06-26T09:25:04;6.43;;;5.13;;
38264;SDS011;24062;47.480;8.768;2023-06-26T09:27:34;5.68;;;5.18;;
38264;SDS011;24062;47.480;8.768;2023-06-26T09:30:02;5.63;;;5.18;;
38264;SDS011;24062;47.480;8.768;2023-06-26T09:32:33;5.70;;;5.20;;
38264;SDS011;24062;47.480;8.768;2023-06-26T09:35:01;6.10;;;5.45;;
38264;SDS011;24062;47.480;8.768;2023-06-26T09:37:28;8.60;;;5.50;;
38264;SDS011;24062;47.480;8.768;2023-06-26T09:39:55;5.57;;;5.07;;
38264;SDS011;24062;47.480;8.768;2023-06-26T09:42:23;5.45;;;4.95;;
38264;SDS011;24062;47.480;8.768;2023-06-26T09:44:51;6.63;;;5.15;;
38264;SDS011;24062;47.480;8.768;2023-06-26T09:47:19;5.63;;;5.13;;
38264;SDS011;24062;47.480;8.768;2023-06-26T09:49:47;5.55;;;5.05;;
38264;SDS011;24062;47.480;8.768;2023-06-26T09:52:15;5.50;;;5.00;;
38264;SDS011;24062;47.480;8.768;2023-06-26T09:54:43;5.13;;;4.72;;
38264;SDS011;24062;47.480;8.768;2023-06-26T09:57:11;5.20;;;4.80;;
38264;SDS011;24062;47.480;8.768;2023-06-26T09:59:39;8.70;;;5.43;;
38264;SDS011;24062;47.480;8.768;2023-06-26T10:02:08;5.93;;;5.43;;
38264;SDS011;24062;47.480;8.768;2023-06-26T10:04:36;6.20;;;5.60;;
38264;SDS011;24062;47.480;8.768;2023-06-26T10:07:05;5.53;;;4.95;;
38264;SDS011;24062;47.480;8.768;2023-06-26T10:09:34;8.93;;;4.93;;
38264;SDS011;24062;47.480;8.768;2023-06-26T10:12:08;5.45;;;4.97;;
38264;SDS011;24062;47.480;8.768;2023-06-26T10:14:38;5.13;;;4.72;;
38264;SDS011;24062;47.480;8.768;2023-06-26T10:17:09;5.25;;;4.85;;
38264;SDS011;24062;47.480;8.768;2023-06-26T10:19:39;5.93;;;5.13;;
38264;SDS011;24062;47.480;8.768;2023-06-26T10:22:07;5.55;;;5.15;;
38264;SDS011;24062;47.480;8.768;2023-06-26T10:24:37;5.75;;;5.35;;
38264;SDS011;24062;47.480;8.768;2023-06-26T10:27:08;5.43;;;4.97;;
38264;SDS011;24062;47.480;8.768;2023-06-26T10:29:40;6.22;;;5.63;;
38264;SDS011;24062;47.480;8.768;2023-06-26T10:32:10;5.82;;;5.32;;
38264;SDS011;24062;47.480;8.768;2023-06-26T10:34:39;5.72;;;5.22;;
38264;SDS011;24062;47.480;8.768;2023-06-26T10:37:06;5.20;;;4.80;;
38264;SDS011;24062;47.480;8.768;2023-06-26T10:42:16;5.60;;;5.15;;
38264;SDS011;24062;47.480;8.768;2023-06-26T10:44:44;5.03;;;4.63;;
38264;SDS011;24062;47.480;8.768;2023-06-26T10:47:28;5.07;;;4.57;;
38264;SDS011;24062;47.480;8.768;2023-06-26T10:49:59;5.40;;;5.00;;
38264;SDS011;24062;47.480;8.768;2023-06-26T10:52:44;4.57;;;4.18;;
38264;SDS011;24062;47.480;8.768;2023-06-26T10:55:11;5.40;;;5.00;;
38264;SDS011;24062;47.480;8.768;2023-06-26T10:57:40;5.80;;;5.20;;
38264;SDS011;24062;47.480;8.768;2023-06-26T11:00:14;5.13;;;4.72;;
38264;SDS011;24062;47.480;8.768;2023-06-26T11:02:50;5.70;;;5.20;;
38264;SDS011;24062;47.480;8.768;2023-06-26T11:05:24;5.80;;;5.38;;
38264;SDS011;24062;47.480;8.768;2023-06-26T11:08:05;5.10;;;4.70;;
38264;SDS011;24062;47.480;8.768;2023-06-26T11:13:26;5.75;;;5.25;;
38264;SDS011;24062;47.480;8.768;2023-06-26T11:15:53;5.90;;;5.50;;
38264;SDS011;24062;47.480;8.768;2023-06-26T11:18:23;7.30;;;5.70;;
38264;SDS011;24062;47.480;8.768;2023-06-26T11:20:50;5.70;;;5.28;;
38264;SDS011;24062;47.480;8.768;2023-06-26T11:23:19;6.47;;;5.88;;
38264;SDS011;24062;47.480;8.768;2023-06-26T11:25:48;5.97;;;5.47;;
38264;SDS011;24062;47.480;8.768;2023-06-26T11:28:15;11.18;;;5.03;;
38264;SDS011;24062;47.480;8.768;2023-06-26T11:30:43;5.45;;;4.95;;
38264;SDS011;24062;47.480;8.768;2023-06-26T11:33:10;6.40;;;5.80;;
38264;SDS011;24062;47.480;8.768;2023-06-26T11:35:38;5.65;;;5.25;;
38264;SDS011;24062;47.480;8.768;2023-06-26T11:38:05;9.18;;;4.93;;
38264;SDS011;24062;47.480;8.768;2023-06-26T11:40:34;6.55;;;6.05;;
38264;SDS011;24062;47.480;8.768;2023-06-26T11:43:02;5.90;;;5.30;;
38264;SDS011;24062;47.480;8.768;2023-06-26T11:45:30;6.35;;;5.75;;
38264;SDS011;24062;47.480;8.768;2023-06-26T11:47:58;6.35;;;5.82;;
38264;SDS011;24062;47.480;8.768;2023-06-26T11:50:26;5.15;;;4.75;;
38264;SDS011;24062;47.480;8.768;2023-06-26T11:52:55;5.95;;;5.40;;
38264;SDS011;24062;47.480;8.768;2023-06-26T11:55:23;6.53;;;6.03;;
38264;SDS011;24062;47.480;8.768;2023-06-26T11:57:50;5.43;;;4.97;;
38264;SDS011;24062;47.480;8.768;2023-06-26T12:00:19;6.00;;;5.60;;
38264;SDS011;24062;47.480;8.768;2023-06-26T12:02:47;6.22;;;5.63;;
38264;SDS011;24062;47.480;8.768;2023-06-26T12:05:16;6.28;;;5.78;;
38264;SDS011;24062;47.480;8.768;2023-06-26T12:07:45;5.72;;;5.18;;
38264;SDS011;24062;47.480;8.768;2023-06-26T12:10:15;6.57;;;6.03;;
38264;SDS011;24062;47.480;8.768;2023-06-26T12:12:43;6.13;;;5.60;;
38264;SDS011;24062;47.480;8.768;2023-06-26T12:15:13;6.60;;;6.00;;
38264;SDS011;24062;47.480;8.768;2023-06-26T12:17:42;11.27;;;5.65;;
38264;SDS011;24062;47.480;8.768;2023-06-26T12:20:17;7.03;;;6.32;;
38264;SDS011;24062;47.480;8.768;2023-06-26T12:22:45;8.20;;;6.18;;
38264;SDS011;24062;47.480;8.768;2023-06-26T12:25:15;9.52;;;6.05;;
38264;SDS011;24062;47.480;8.768;2023-06-26T12:27:48;7.68;;;6.35;;
38264;SDS011;24062;47.480;8.768;2023-06-26T12:30:16;6.50;;;5.90;;
38264;SDS011;24062;47.480;8.768;2023-06-26T12:32:45;9.52;;;7.30;;
38264;SDS011;24062;47.480;8.768;2023-06-26T12:35:13;6.93;;;6.32;;
38264;SDS011;24062;47.480;8.768;2023-06-26T12:37:41;9.55;;;7.22;;
38264;SDS011;24062;47.480;8.768;2023-06-26T12:40:17;13.98;;;6.18;;
38264;SDS011;24062;47.480;8.768;2023-06-26T12:42:47;6.45;;;5.85;;
38264;SDS011;24062;47.480;8.768;2023-06-26T12:45:14;11.40;;;6.72;;
38264;SDS011;24062;47.480;8.768;2023-06-26T12:47:42;7.53;;;5.97;;
38264;SDS011;24062;47.480;8.768;2023-06-26T12:50:09;8.05;;;6.93;;
38264;SDS011;24062;47.480;8.768;2023-06-26T12:52:36;8.13;;;6.85;;
38264;SDS011;24062;47.480;8.768;2023-06-26T12:55:03;8.43;;;7.45;;
38264;SDS011;24062;47.480;8.768;2023-06-26T12:57:33;7.35;;;6.43;;
38264;SDS011;24062;47.480;8.768;2023-06-26T13:00:00;7.65;;;6.80;;
38264;SDS011;24062;47.480;8.768;2023-06-26T13:02:28;8.00;;;6.55;;
38264;SDS011;24062;47.480;8.768;2023-06-26T13:04:54;6.95;;;6.32;;
38264;SDS011;24062;47.480;8.768;2023-06-26T13:07:21;7.00;;;6.18;;
38264;SDS011;24062;47.480;8.768;2023-06-26T13:09:50;7.05;;;6.18;;
38264;SDS011;24062;47.480;8.768;2023-06-26T13:12:17;6.50;;;5.80;;
38264;SDS011;24062;47.480;8.768;2023-06-26T13:14:45;6.25;;;5.70;;
38264;SDS011;24062;47.480;8.768;2023-06-26T13:17:13;6.03;;;5.55;;
38264;SDS011;24062;47.480;8.768;2023-06-26T13:19:40;6.43;;;5.60;;
38264;SDS011;24062;47.480;8.768;2023-06-26T13:22:07;6.10;;;5.60;;
38264;SDS011;24062;47.480;8.768;2023-06-26T13:24:34;5.97;;;5.40;;
38264;SDS011;24062;47.480;8.768;2023-06-26T13:27:00;6.22;;;5.68;;
38264;SDS011;24062;47.480;8.768;2023-06-26T13:29:28;6.43;;;5.78;;
38264;SDS011;24062;47.480;8.768;2023-06-26T13:31:56;6.22;;;5.72;;
38264;SDS011;24062;47.480;8.768;2023-06-26T13:34:23;7.20;;;5.80;;
38264;SDS011;24062;47.480;8.768;2023-06-26T13:36:52;5.70;;;5.13;;
38264;SDS011;24062;47.480;8.768;2023-06-26T13:39:19;6.53;;;5.97;;
38264;SDS011;24062;47.480;8.768;2023-06-26T13:41:46;6.22;;;5.72;;
38264;SDS011;24062;47.480;8.768;2023-06-26T13:44:13;6.57;;;5.40;;
38264;SDS011;24062;47.480;8.768;2023-06-26T13:46:40;6.53;;;5.93;;
38264;SDS011;24062;47.480;8.768;2023-06-26T13:49:08;6.78;;;5.93;;
38264;SDS011;24062;47.480;8.768;2023-06-26T13:51:35;6.72;;;6.22;;
38264;SDS011;24062;47.480;8.768;2023-06-26T13:54:03;5.63;;;5.18;;
38264;SDS011;24062;47.480;8.768;2023-06-26T13:56:29;8.07;;;5.75;;
38264;SDS011;24062;47.480;8.768;2023-06-26T13:58:56;6.13;;;5.53;;
38264;SDS011;24062;47.480;8.768;2023-06-26T14:01:24;7.78;;;6.45;;
38264;SDS011;24062;47.480;8.768;2023-06-26T14:03:51;6.57;;;6.07;;
38264;SDS011;24062;47.480;8.768;2023-06-26T14:06:20;15.93;;;6.35;;
38264;SDS011;24062;47.480;8.768;2023-06-26T14:08:46;7.00;;;6.30;;
38264;SDS011;24062;47.480;8.768;2023-06-26T14:11:14;6.10;;;5.60;;
38264;SDS011;24062;47.480;8.768;2023-06-26T14:13:41;6.65;;;6.15;;
38264;SDS011;24062;47.480;8.768;2023-06-26T14:16:08;5.97;;;5.57;;
38264;SDS011;24062;47.480;8.768;2023-06-26T14:18:35;6.95;;;6.43;;
38264;SDS011;24062;47.480;8.768;2023-06-26T14:21:02;9.18;;;6.00;;
38264;SDS011;24062;47.480;8.768;2023-06-26T14:23:31;7.10;;;6.50;;
38264;SDS011;24062;47.480;8.768;2023-06-26T14:25:58;6.35;;;5.85;;
38264;SDS011;24062;47.480;8.768;2023-06-26T14:28:24;6.28;;;5.78;;
38264;SDS011;24062;47.480;8.768;2023-06-26T14:30:51;6.05;;;5.65;;
38264;SDS011;24062;47.480;8.768;2023-06-26T14:33:18;6.78;;;5.90;;
38264;SDS011;24062;47.480;8.768;2023-06-26T14:35:45;6.18;;;5.68;;
38264;SDS011;24062;47.480;8.768;2023-06-26T14:38:14;8.70;;;6.70;;
38264;SDS011;24062;47.480;8.768;2023-06-26T14:40:42;6.93;;;6.32;;
38264;SDS011;24062;47.480;8.768;2023-06-26T14:43:09;6.75;;;6.15;;
38264;SDS011;24062;47.480;8.768;2023-06-26T14:45:36;6.65;;;6.07;;
38264;SDS011;24062;47.480;8.768;2023-06-26T14:48:03;6.80;;;6.30;;
38264;SDS011;24062;47.480;8.768;2023-06-26T14:50:30;6.75;;;6.25;;
38264;SDS011;24062;47.480;8.768;2023-06-26T14:52:57;6.50;;;5.82;;
38264;SDS011;24062;47.480;8.768;2023-06-26T14:55:24;6.82;;;6.32;;
38264;SDS011;24062;47.480;8.768;2023-06-26T14:57:52;6.38;;;5.78;;